Terminal Aerodrome Forecast
Issued by NWS Cleveland, OH

Home | Current Version | Previous Version | Graphics & Text | Print | Product List | Glossary Off
Versions: 1 2 3 4 5 6 7 8 9 10 11 12 13 14 15 16 17 18 19 20 21 22 23 24 25 26 27 28 29

614
FTUS41 KCLE 211046 AAD
TAFERI
TAF AMD
KERI 211046Z 2111/2206 VRB04KT 4SM BR SCT012 OVC050
      TEMPO 2111/2113 1SM BR OVC012
     FM211400 17010KT 4SM BR OVC015
     FM211800 18010KT P6SM BKN030=

USA.gov is the U.S. government's official web portal to all federal, state and local government web resources and services.